createdAt,value
2022-12-11T00:01:21.702Z,1.23
2022-12-11T00:04:25.235Z,1.40
2022-12-11T00:07:29.823Z,0.80
2022-12-11T00:10:37.515Z,1.20
2022-12-11T00:13:40.985Z,0.97
2022-12-11T00:16:44.163Z,1.23
2022-12-11T00:19:47.327Z,1.17
2022-12-11T00:22:51.765Z,0.90
2022-12-11T00:25:54.905Z,1.17
2022-12-11T00:28:59.151Z,1.17
2022-12-11T00:32:02.323Z,1.13
2022-12-11T00:35:06.016Z,1.03
2022-12-11T00:38:15.053Z,1.30
2022-12-11T00:41:19.035Z,1.03
2022-12-11T00:44:22.335Z,0.80
2022-12-11T00:47:25.421Z,1.30
2022-12-11T00:50:28.690Z,0.90
2022-12-11T00:53:33.241Z,0.90
2022-12-11T00:56:37.595Z,1.20
2022-12-11T00:59:40.865Z,1.80
2022-12-11T01:02:43.996Z,0.90
2022-12-11T01:05:53.935Z,1.33
2022-12-11T01:09:12.600Z,1.40
2022-12-11T01:12:15.799Z,1.53
2022-12-11T01:15:19.436Z,1.00
2022-12-11T01:18:22.583Z,1.23
2022-12-11T01:21:25.723Z,1.20
2022-12-11T01:24:30.204Z,1.20
2022-12-11T01:27:33.332Z,1.47
2022-12-11T01:30:36.938Z,1.50
2022-12-11T01:33:41.174Z,1.07
2022-12-11T01:36:44.329Z,1.13
2022-12-11T01:39:48.866Z,1.13
2022-12-11T01:42:52.335Z,1.20
2022-12-11T01:45:55.654Z,1.17
2022-12-11T01:48:59.950Z,1.40
2022-12-11T01:52:07.423Z,1.30
2022-12-11T01:55:12.430Z,1.20
2022-12-11T01:58:17.472Z,2.57
2022-12-11T02:01:28.244Z,4.70
2022-12-11T02:04:32.340Z,2.80
2022-12-11T02:07:41.188Z,2.27
2022-12-11T02:10:57.333Z,2.00
2022-12-11T02:14:09.671Z,1.90
2022-12-11T02:17:15.909Z,1.20
2022-12-11T02:20:25.211Z,0.90
2022-12-11T02:24:13.301Z,0.90
2022-12-11T02:27:28.224Z,1.00
2022-12-11T02:30:34.953Z,1.10
2022-12-11T02:33:45.329Z,0.90
2022-12-11T02:36:52.203Z,1.00
2022-12-11T02:39:57.289Z,0.80
2022-12-11T02:43:05.271Z,1.30
2022-12-11T02:46:10.119Z,0.93
2022-12-11T02:49:14.629Z,1.23
2022-12-11T02:52:23.355Z,0.80
2022-12-11T02:55:29.246Z,0.60
2022-12-11T02:58:34.268Z,1.20
2022-12-11T03:01:38.813Z,0.70
2022-12-11T03:04:42.932Z,0.70
2022-12-11T03:07:46.636Z,0.80
2022-12-11T03:10:49.758Z,0.80
2022-12-11T03:13:53.695Z,0.80
2022-12-11T03:17:06.172Z,1.00
2022-12-11T03:20:13.789Z,1.10
2022-12-11T03:23:22.335Z,0.87
2022-12-11T03:26:26.622Z,0.90
2022-12-11T03:29:36.364Z,1.03
2022-12-11T03:32:48.835Z,1.00
2022-12-11T03:35:56.096Z,1.00
2022-12-11T03:39:02.114Z,0.90
2022-12-11T03:42:09.381Z,1.10
2022-12-11T03:45:14.138Z,0.90
2022-12-11T03:48:19.963Z,0.87
2022-12-11T03:51:24.258Z,1.17
2022-12-11T03:54:28.561Z,1.00
2022-12-11T03:57:36.473Z,0.80
2022-12-11T04:00:39.864Z,1.00
2022-12-11T04:03:44.378Z,1.10
2022-12-11T04:06:47.689Z,0.83
2022-12-11T04:09:50.812Z,1.10
2022-12-11T04:12:53.938Z,1.27
2022-12-11T04:15:56.068Z,1.23
2022-12-11T04:19:18.193Z,1.20
2022-12-11T04:22:38.673Z,0.97
2022-12-11T04:25:41.807Z,1.03
2022-12-11T04:28:46.309Z,1.30
2022-12-11T04:31:50.732Z,1.43
2022-12-11T04:34:55.337Z,1.20
2022-12-11T04:37:58.653Z,1.33
2022-12-11T04:41:02.258Z,1.00
2022-12-11T04:44:05.711Z,1.57
2022-12-11T04:47:08.882Z,1.57
2022-12-11T04:50:15.396Z,1.50
2022-12-11T04:53:18.476Z,1.33
2022-12-11T04:56:22.141Z,1.37
2022-12-11T04:59:25.525Z,1.77
2022-12-11T05:02:28.701Z,1.50
2022-12-11T05:05:33.174Z,1.30
2022-12-11T05:08:38.637Z,1.40
2022-12-11T05:11:42.180Z,1.37
2022-12-11T05:14:45.316Z,1.30
2022-12-11T05:17:48.399Z,1.70
2022-12-11T05:20:57.979Z,1.77
2022-12-11T05:24:01.102Z,1.20
2022-12-11T05:27:04.206Z,1.03
2022-12-11T05:30:10.160Z,1.43
2022-12-11T05:33:13.479Z,1.80
2022-12-11T05:36:20.226Z,1.63
2022-12-11T05:39:23.303Z,1.43
2022-12-11T05:42:28.981Z,1.10
2022-12-11T05:45:32.395Z,1.10
2022-12-11T05:48:36.286Z,1.33
2022-12-11T05:51:41.409Z,1.10
2022-12-11T05:54:44.545Z,1.40
2022-12-11T05:57:47.672Z,1.10
2022-12-11T06:00:50.796Z,1.30
2022-12-11T06:03:55.290Z,1.50
2022-12-11T06:06:59.787Z,1.20
2022-12-11T06:10:02.886Z,1.47
2022-12-11T06:13:06.035Z,1.27
2022-12-11T06:16:10.526Z,1.30
2022-12-11T06:19:15.828Z,1.00
2022-12-11T06:22:20.300Z,1.33
2022-12-11T06:25:23.434Z,1.30
2022-12-11T06:28:26.521Z,1.33
2022-12-11T06:31:29.948Z,1.47
2022-12-11T06:34:33.096Z,1.37
2022-12-11T06:37:38.386Z,1.17
2022-12-11T06:40:41.485Z,1.47
2022-12-11T06:43:45.045Z,1.60
2022-12-11T06:46:48.151Z,1.70
2022-12-11T06:49:51.253Z,1.33
2022-12-11T06:52:56.922Z,1.10
2022-12-11T06:56:03.924Z,1.50
2022-12-11T06:59:07.720Z,1.73
2022-12-11T07:02:13.779Z,1.47
2022-12-11T07:05:16.975Z,1.27
2022-12-11T07:08:21.497Z,1.33
2022-12-11T07:11:25.096Z,1.90
2022-12-11T07:14:28.334Z,1.60
2022-12-11T07:17:31.807Z,1.50
2022-12-11T07:20:34.896Z,1.77
2022-12-11T07:23:39.799Z,1.73
2022-12-11T07:26:42.926Z,1.83
2022-12-11T07:29:46.080Z,2.40
2022-12-11T07:32:49.169Z,2.00
2022-12-11T07:35:52.314Z,1.87
2022-12-11T07:38:57.482Z,1.90
2022-12-11T07:42:00.562Z,2.60
2022-12-11T07:45:03.708Z,2.23
2022-12-11T07:48:07.377Z,2.80
2022-12-11T07:51:12.052Z,2.50
2022-12-11T07:54:17.539Z,2.50
2022-12-11T07:57:20.648Z,2.00
2022-12-11T08:00:23.904Z,1.90
2022-12-11T08:03:27.026Z,2.47
2022-12-11T08:06:31.456Z,2.60
2022-12-11T08:09:35.925Z,3.20
2022-12-11T08:12:39.027Z,2.73
2022-12-11T08:15:42.125Z,2.40
2022-12-11T08:18:46.947Z,2.70
2022-12-11T08:21:50.107Z,3.00
2022-12-11T08:24:54.641Z,2.60
2022-12-11T08:27:57.753Z,2.50
2022-12-11T08:31:01.354Z,2.73
2022-12-11T08:34:04.527Z,2.37
2022-12-11T08:37:07.677Z,2.30
2022-12-11T08:40:14.264Z,2.77
2022-12-11T08:43:17.346Z,2.53
2022-12-11T08:46:20.475Z,3.00
2022-12-11T08:49:23.627Z,2.17
2022-12-11T08:52:26.719Z,2.00
2022-12-11T08:55:31.271Z,2.30
2022-12-11T08:58:34.430Z,2.30
2022-12-11T09:01:37.681Z,2.80
2022-12-11T09:04:41.174Z,4.47
2022-12-11T09:07:44.380Z,3.47
2022-12-11T09:10:48.902Z,3.30
2022-12-11T09:13:52.478Z,5.70
2022-12-11T09:16:55.572Z,6.67
2022-12-11T09:19:58.716Z,12.57
2022-12-11T09:23:02.857Z,9.20
2022-12-11T09:26:08.760Z,8.50
2022-12-11T09:29:12.661Z,7.47
2022-12-11T09:32:15.756Z,2.40
2022-12-11T09:35:19.053Z,2.80
2022-12-11T09:38:22.160Z,2.70
2022-12-11T09:41:38.474Z,2.53
2022-12-11T09:44:44.783Z,2.10
2022-12-11T09:47:52.634Z,2.43
2022-12-11T09:50:56.637Z,2.30
2022-12-11T09:54:04.202Z,2.30
2022-12-11T09:57:18.859Z,2.30
2022-12-11T10:00:27.878Z,2.20
2022-12-11T10:04:03.659Z,2.30
2022-12-11T10:07:13.515Z,2.10
2022-12-11T10:10:25.049Z,2.20
2022-12-11T10:13:39.234Z,2.80
2022-12-11T10:16:46.364Z,5.00
2022-12-11T10:19:50.498Z,5.90
2022-12-11T10:22:54.843Z,3.33
2022-12-11T10:26:04.099Z,8.80
2022-12-11T10:29:15.436Z,5.67
2022-12-11T10:32:25.061Z,5.23
2022-12-11T10:35:34.406Z,5.80
2022-12-11T10:38:43.506Z,8.63
2022-12-11T10:41:48.336Z,10.00
2022-12-11T10:45:01.677Z,4.33
2022-12-11T10:48:07.046Z,4.40
2022-12-11T10:51:10.242Z,6.67
2022-12-11T10:54:29.237Z,5.80
2022-12-11T10:57:35.561Z,7.60
2022-12-11T11:00:42.300Z,10.60
2022-12-11T11:03:55.404Z,6.00
2022-12-11T11:07:13.512Z,3.43
2022-12-11T11:10:18.670Z,6.53
2022-12-11T11:13:23.340Z,4.33
2022-12-11T11:16:27.987Z,3.50
2022-12-11T11:19:33.389Z,2.83
2022-12-11T11:22:43.918Z,3.13
2022-12-11T11:25:52.605Z,2.63
2022-12-11T11:28:57.924Z,3.13
2022-12-11T11:32:17.098Z,3.50
2022-12-11T11:35:23.172Z,2.73
2022-12-11T11:38:30.442Z,3.70
2022-12-11T11:41:38.694Z,2.50
2022-12-11T11:44:45.843Z,2.50
2022-12-11T11:47:59.804Z,2.27
2022-12-11T11:51:14.817Z,2.63
2022-12-11T11:54:29.519Z,2.50
2022-12-11T11:57:42.433Z,2.60
2022-12-11T12:00:45.606Z,2.53
2022-12-11T12:03:51.639Z,2.20
2022-12-11T12:07:15.073Z,2.70
2022-12-11T12:10:23.459Z,2.57
2022-12-11T12:13:50.149Z,2.57
2022-12-11T12:17:05.482Z,2.83
2022-12-11T12:20:19.664Z,2.43
2022-12-11T12:23:45.608Z,2.47
2022-12-11T12:26:56.750Z,2.53
2022-12-11T12:30:04.434Z,2.53
2022-12-11T12:33:25.384Z,2.57
2022-12-11T12:36:42.941Z,2.40
2022-12-11T12:39:56.086Z,2.53
2022-12-11T12:43:12.714Z,2.53
2022-12-11T12:46:29.204Z,2.40
2022-12-11T12:49:38.440Z,2.67
2022-12-11T12:52:43.829Z,2.50
2022-12-11T12:55:49.483Z,3.40
2022-12-11T12:58:52.652Z,2.73
2022-12-11T13:01:58.763Z,3.17
2022-12-11T13:05:07.499Z,3.00
2022-12-11T13:08:13.879Z,2.60
2022-12-11T13:11:20.055Z,2.63
2022-12-11T13:14:29.963Z,2.83
2022-12-11T13:17:40.477Z,2.57
2022-12-11T13:20:51.224Z,2.30
2022-12-11T13:23:56.053Z,2.63
2022-12-11T13:27:11.023Z,2.33
2022-12-11T13:30:24.590Z,2.40
2022-12-11T13:33:28.211Z,2.53
2022-12-11T13:36:34.693Z,2.50
2022-12-11T13:39:41.360Z,2.30
2022-12-11T13:42:51.017Z,2.70
2022-12-11T13:45:57.156Z,2.77
2022-12-11T13:49:03.607Z,2.73
2022-12-11T13:52:07.772Z,2.53
2022-12-11T13:55:26.176Z,1.97
2022-12-11T13:58:31.148Z,2.43
2022-12-11T14:01:36.141Z,2.90
2022-12-11T14:04:39.789Z,1.90
2022-12-11T14:07:47.715Z,2.13
2022-12-11T14:10:55.495Z,2.63
2022-12-11T14:14:01.334Z,2.30
2022-12-11T14:17:05.412Z,1.93
2022-12-11T14:20:19.042Z,2.80
2022-12-11T14:23:24.867Z,2.53
2022-12-11T14:26:32.174Z,2.37
2022-12-11T14:29:36.323Z,2.77
2022-12-11T14:32:45.423Z,3.10
2022-12-11T14:35:50.270Z,2.40
2022-12-11T14:38:57.204Z,2.60
2022-12-11T14:42:05.890Z,2.30
2022-12-11T14:45:19.290Z,3.07
2022-12-11T14:48:25.105Z,3.60
2022-12-11T14:51:32.502Z,9.67
2022-12-11T14:54:39.258Z,18.27
2022-12-11T14:57:47.018Z,20.67
2022-12-11T15:00:59.579Z,14.00
2022-12-11T15:04:17.469Z,10.03
2022-12-11T15:07:22.814Z,15.80
2022-12-11T15:10:33.273Z,7.50
2022-12-11T15:13:41.334Z,6.03
2022-12-11T15:16:44.851Z,4.20
2022-12-11T15:19:51.905Z,4.70
2022-12-11T15:22:57.928Z,2.77
2022-12-11T15:26:03.178Z,2.70
2022-12-11T15:29:25.954Z,2.40
2022-12-11T15:32:32.768Z,2.40
2022-12-11T15:35:36.314Z,2.83
2022-12-11T15:38:42.424Z,2.97
2022-12-11T15:41:45.968Z,3.03
2022-12-11T15:44:50.822Z,2.97
2022-12-11T15:47:54.501Z,2.70
2022-12-11T15:50:58.563Z,2.93
2022-12-11T15:54:02.136Z,3.30
2022-12-11T15:57:09.386Z,3.30
2022-12-11T16:00:16.900Z,2.90
2022-12-11T16:03:21.975Z,3.07
2022-12-11T16:06:25.858Z,2.83
2022-12-11T16:09:29.440Z,2.87
2022-12-11T16:12:32.659Z,3.60
2022-12-11T16:15:40.759Z,2.97
2022-12-11T16:18:44.710Z,2.83
2022-12-11T16:21:48.195Z,2.63
2022-12-11T16:24:54.961Z,3.07
2022-12-11T16:27:58.704Z,2.97
2022-12-11T16:31:04.712Z,2.50
2022-12-11T16:34:09.573Z,3.40
2022-12-11T16:37:15.162Z,3.43
2022-12-11T16:40:19.823Z,3.00
2022-12-11T16:43:23.158Z,2.90
2022-12-11T16:46:28.934Z,3.40
2022-12-11T16:49:32.978Z,2.73
2022-12-11T16:52:36.155Z,3.07
2022-12-11T16:55:41.280Z,2.37
2022-12-11T16:58:44.461Z,3.40
2022-12-11T17:01:50.584Z,3.00
2022-12-11T17:04:54.351Z,3.00
2022-12-11T17:07:59.105Z,3.13
2022-12-11T17:11:05.916Z,3.77
2022-12-11T17:14:12.587Z,3.10
2022-12-11T17:17:18.281Z,3.03
2022-12-11T17:20:24.162Z,3.67
2022-12-11T17:23:28.094Z,4.60
2022-12-11T17:26:32.328Z,4.80
2022-12-11T17:29:36.315Z,3.37
2022-12-11T17:32:42.596Z,3.07
2022-12-11T17:35:46.891Z,3.13
2022-12-11T17:38:51.916Z,3.20
2022-12-11T17:41:55.239Z,3.00
2022-12-11T17:44:59.380Z,3.03
2022-12-11T17:48:04.938Z,3.10
2022-12-11T17:51:10.203Z,3.87
2022-12-11T17:54:13.532Z,4.33
2022-12-11T17:57:16.960Z,5.23
2022-12-11T18:00:21.163Z,4.37
2022-12-11T18:03:28.493Z,4.10
2022-12-11T18:06:33.125Z,3.80
2022-12-11T18:09:36.331Z,30.50
2022-12-11T18:12:39.777Z,9.80
2022-12-11T18:15:44.770Z,8.30
2022-12-11T18:18:51.996Z,46.60
2022-12-11T18:21:57.012Z,27.20
2022-12-11T18:25:07.867Z,8.60
2022-12-11T18:28:14.564Z,5.90
2022-12-11T18:31:22.059Z,3.57
2022-12-11T18:34:27.753Z,4.50
2022-12-11T18:37:32.333Z,4.87
2022-12-11T18:40:36.753Z,3.60
2022-12-11T18:43:40.782Z,3.70
2022-12-11T18:46:45.500Z,3.80
2022-12-11T18:49:52.239Z,3.80
2022-12-11T18:52:57.940Z,4.03
2022-12-11T18:56:02.775Z,4.80
2022-12-11T18:59:09.173Z,4.20
2022-12-11T19:02:14.497Z,3.83
2022-12-11T19:05:21.365Z,3.90
2022-12-11T19:08:25.328Z,2.90
2022-12-11T19:11:31.501Z,4.00
2022-12-11T19:14:35.799Z,3.50
2022-12-11T19:17:40.617Z,3.07
2022-12-11T19:20:50.939Z,3.40
2022-12-11T19:23:59.920Z,3.40
2022-12-11T19:27:08.582Z,3.10
2022-12-11T19:30:18.559Z,3.60
2022-12-11T19:33:23.447Z,3.40
2022-12-11T19:36:31.345Z,3.10
2022-12-11T19:39:36.166Z,3.90
2022-12-11T19:42:41.030Z,3.17
2022-12-11T19:45:49.194Z,2.90
2022-12-11T19:48:55.654Z,2.50
2022-12-11T19:52:01.984Z,3.47
2022-12-11T19:55:07.847Z,3.20
2022-12-11T19:58:11.965Z,3.93
2022-12-11T20:01:25.324Z,4.00
2022-12-11T20:04:31.189Z,3.27
2022-12-11T20:07:39.263Z,3.90
2022-12-11T20:10:44.168Z,4.03
2022-12-11T20:13:49.532Z,4.77
2022-12-11T20:17:11.891Z,3.53
2022-12-11T20:20:19.680Z,4.07
2022-12-11T20:23:25.830Z,4.57
2022-12-11T20:26:32.939Z,3.90
2022-12-11T20:29:38.928Z,5.73
2022-12-11T20:32:43.253Z,4.67
2022-12-11T20:35:50.009Z,5.30
2022-12-11T20:38:58.010Z,3.47
2022-12-11T20:42:10.840Z,3.40
2022-12-11T20:45:16.259Z,3.90
2022-12-11T20:48:20.229Z,4.43
2022-12-11T20:51:27.425Z,3.60
2022-12-11T20:54:35.113Z,3.73
2022-12-11T20:57:43.460Z,4.37
2022-12-11T21:00:49.293Z,3.50
2022-12-11T21:03:54.402Z,2.90
2022-12-11T21:07:02.685Z,3.20
2022-12-11T21:10:08.519Z,5.40
2022-12-11T21:13:12.529Z,3.53
2022-12-11T21:16:16.668Z,3.73
2022-12-11T21:19:24.328Z,3.00
2022-12-11T21:22:27.875Z,3.20
2022-12-11T21:25:32.771Z,3.03
2022-12-11T21:28:36.319Z,3.17
2022-12-11T21:31:40.175Z,3.57
2022-12-11T21:34:43.496Z,3.70
2022-12-11T21:37:46.728Z,3.23
2022-12-11T21:40:52.451Z,3.10
2022-12-11T21:47:21.003Z,2.97
2022-12-11T21:50:24.137Z,4.00
2022-12-11T21:53:27.292Z,3.07
2022-12-11T21:56:32.365Z,3.53
2022-12-11T21:59:35.538Z,5.00
2022-12-11T22:02:41.153Z,5.80
2022-12-11T22:05:44.552Z,7.20
2022-12-11T22:08:49.197Z,7.20
2022-12-11T22:11:58.148Z,6.47
2022-12-11T22:15:01.690Z,7.10
2022-12-11T22:18:05.115Z,6.50
2022-12-11T22:21:08.507Z,6.00
2022-12-11T22:24:11.677Z,5.30
2022-12-11T22:27:20.525Z,6.00
2022-12-11T22:30:26.698Z,6.30
2022-12-11T22:33:29.857Z,5.93
2022-12-11T22:36:32.997Z,5.50
2022-12-11T22:39:36.154Z,6.80
2022-12-11T22:42:40.663Z,6.20
2022-12-11T22:45:43.849Z,5.13
2022-12-11T22:48:47.098Z,6.00
2022-12-11T22:51:50.359Z,6.10
2022-12-11T22:54:53.499Z,6.10
2022-12-11T22:57:58.299Z,6.60
2022-12-11T23:01:01.750Z,6.13
2022-12-11T23:04:04.993Z,6.90
2022-12-11T23:07:08.351Z,5.97
2022-12-11T23:10:12.217Z,6.03
2022-12-11T23:13:16.730Z,6.13
2022-12-11T23:16:20.028Z,7.40
2022-12-11T23:19:25.591Z,7.10
2022-12-11T23:22:29.108Z,7.17
2022-12-11T23:25:32.220Z,7.30
2022-12-11T23:28:36.847Z,7.07
2022-12-11T23:31:39.955Z,6.53
2022-12-11T23:34:43.063Z,7.33
2022-12-11T23:37:46.610Z,7.33
2022-12-11T23:40:50.674Z,7.13
2022-12-11T23:43:55.202Z,6.50
2022-12-11T23:46:58.324Z,6.87
2022-12-11T23:50:01.402Z,7.67
2022-12-11T23:53:04.568Z,7.63
2022-12-11T23:56:10.189Z,7.60
2022-12-11T23:59:15.271Z,8.03
